Terminal Aerodrome Forecast
Issued by NWS

Current Version | Previous Version | Text Only | Print | Product List | Glossary On
Versions: 1 2 3 4 5 6 7 8 9 10 11 12 13 14 15 16 17 18 19 20 21 22 23 24 25 26
804 FTUS41 KOKX 212329 TAFHPN TAF KHPN 212329Z 2200/2224 VRB03KT P6SM BKN250 FM221700 16005KT P6SM BKN250 AMD NOT SKED=

USA.gov is the U.S. government's official web portal to all federal, state and local government web resources and services.